Time;durP1;ratioP1;P1;durP2;ratioP2;P2;SDS_P1;SDS_P2;PMS_P1;PMS_P2;Temp;Humidity;BMP_temperature;BMP_pressure;BME280_temperature;BME280_humidity;BME280_pressure;Samples;Min_cycle;Max_cycle;Signal;HPM_P1;HPM_P2
2023/10/12 00:01:58;;;;;;;21.00;7.03;;;16.40;99.90;;;;;;5094781;28;20111;-68
2023/10/12 00:04:38;;;;;;;14.38;6.60;;;16.30;99.90;;;;;;5095068;28;20040;-68
2023/10/12 00:07:17;;;;;;;14.00;6.57;;;16.30;99.90;;;;;;5094620;28;20115;-68
2023/10/12 00:09:48;;;;;;;16.00;6.68;;;16.30;99.90;;;;;;5095017;28;20116;-68
2023/10/12 00:12:24;;;;;;;14.00;5.87;;;16.20;99.90;;;;;;5094897;28;20028;-68
2023/10/12 00:14:55;;;;;;;14.57;7.35;;;16.20;99.90;;;;;;5094508;28;20381;-69
2023/10/12 00:17:26;;;;;;;16.63;6.20;;;16.20;99.90;;;;;;5094730;28;20487;-68
2023/10/12 00:19:52;;;;;;;16.25;6.50;;;16.10;99.90;;;;;;5091015;28;20055;-68
2023/10/12 00:22:18;;;;;;;12.60;6.85;;;16.10;99.90;;;;;;5074510;28;20102;-69
2023/10/12 00:24:44;;;;;;;16.80;7.20;;;16.10;99.90;;;;;;5074120;28;20109;-68
2023/10/12 00:27:12;;;;;;;15.65;7.20;;;16.20;99.90;;;;;;5072709;28;20024;-70
2023/10/12 00:29:39;;;;;;;13.50;7.20;;;16.20;99.90;;;;;;5074190;28;20033;-70
2023/10/12 00:32:09;;;;;;;15.93;7.78;;;16.10;99.90;;;;;;5073905;28;20032;-69
2023/10/12 00:34:38;;;;;;;15.10;7.55;;;16.10;99.90;;;;;;5074086;28;20047;-69
2023/10/12 00:37:06;;;;;;;13.30;6.57;;;16.10;99.90;;;;;;5073779;28;20469;-69
2023/10/12 00:39:58;;;;;;;18.42;8.20;;;16.10;99.90;;;;;;5073827;28;20469;-70
2023/10/12 00:42:33;;;;;;;13.07;6.68;;;16.00;99.90;;;;;;5073887;28;20024;-70
2023/10/12 00:45:22;;;;;;;15.00;7.18;;;16.00;99.90;;;;;;5073278;28;20083;-69
2023/10/12 00:47:44;;;;;;;15.63;6.28;;;16.00;99.90;;;;;;5073643;28;20094;-69
2023/10/12 00:50:11;;;;;;;15.88;7.30;;;16.00;99.90;;;;;;5073450;28;20033;-69
2023/10/12 00:55:34;;;;;;;15.48;6.57;;;15.90;99.90;;;;;;5073863;28;20408;-69
2023/10/12 00:58:04;;;;;;;13.07;6.03;;;15.90;99.90;;;;;;5073122;28;20056;-69
2023/10/12 01:00:35;;;;;;;16.45;5.50;;;15.90;99.90;;;;;;5073606;28;20389;-69
2023/10/12 01:03:29;;;;;;;9.95;5.97;;;15.80;99.90;;;;;;5073419;28;20063;-69
2023/10/12 01:08:42;;;;;;;10.60;5.88;;;15.80;99.90;;;;;;5073624;28;20064;-69
2023/10/12 01:11:20;;;;;;;10.73;5.55;;;15.70;99.90;;;;;;5073168;28;20025;-69
2023/10/12 01:14:17;;;;;;;14.15;5.60;;;15.70;99.90;;;;;;5072698;28;20174;-68
2023/10/12 01:16:44;;;;;;;14.55;5.80;;;15.70;99.90;;;;;;5071759;28;20131;-68
2023/10/12 01:19:10;;;;;;;15.02;6.15;;;15.70;99.90;;;;;;5072907;28;20378;-68
2023/10/12 01:21:36;;;;;;;10.65;5.07;;;15.60;99.90;;;;;;5073195;28;20107;-68
2023/10/12 01:24:11;;;;;;;14.55;5.57;;;15.60;99.90;;;;;;5072504;28;20113;-68
2023/10/12 01:26:43;;;;;;;9.60;4.85;;;15.60;99.90;;;;;;5073296;28;20025;-69
2023/10/12 01:29:20;;;;;;;15.55;6.32;;;15.50;99.90;;;;;;5075225;28;20020;-69
2023/10/12 01:31:52;;;;;;;8.52;5.15;;;15.50;99.90;;;;;;5073437;28;20060;-68
2023/10/12 01:34:18;;;;;;;11.65;5.70;;;15.50;99.90;;;;;;5073009;28;20515;-69
2023/10/12 01:36:44;;;;;;;10.85;5.75;;;15.50;99.90;;;;;;5072867;28;20024;-68
2023/10/12 01:39:12;;;;;;;15.57;5.10;;;15.40;99.90;;;;;;5072657;28;20029;-69
2023/10/12 01:41:40;;;;;;;11.52;5.22;;;15.40;99.90;;;;;;5073141;28;20117;-69
2023/10/12 01:44:10;;;;;;;11.45;5.90;;;15.40;99.90;;;;;;5072643;28;20028;-70
2023/10/12 01:46:40;;;;;;;12.45;6.07;;;15.30;99.90;;;;;;5075251;28;20074;-69
2023/10/12 01:49:11;;;;;;;12.60;5.30;;;15.30;99.90;;;;;;5072489;28;20031;-69
2023/10/12 01:51:42;;;;;;;10.65;5.40;;;15.30;99.90;;;;;;5072868;28;20033;-69
2023/10/12 01:54:11;;;;;;;14.25;5.78;;;15.30;99.90;;;;;;5072439;28;20032;-70
2023/10/12 01:56:38;;;;;;;12.73;5.35;;;15.30;99.90;;;;;;5072794;28;20082;-70
2023/10/12 01:59:07;;;;;;;11.05;5.57;;;15.30;99.90;;;;;;5072657;28;20048;-70
2023/10/12 02:01:34;;;;;;;13.55;5.63;;;15.30;99.90;;;;;;5072868;28;20021;-69
2023/10/12 02:04:02;;;;;;;12.18;5.50;;;15.20;99.90;;;;;;5072716;28;20071;-69
2023/10/12 02:06:28;;;;;;;9.38;5.25;;;15.20;99.90;;;;;;5072767;28;20029;-69
2023/10/12 02:08:54;;;;;;;16.77;6.10;;;15.20;99.90;;;;;;5072683;28;20021;-69
2023/10/12 02:13:54;;;;;;;10.57;5.90;;;15.20;99.90;;;;;;5072599;28;20066;-69
2023/10/12 02:16:26;;;;;;;12.77;5.40;;;15.10;99.90;;;;;;5072274;28;20392;-69
2023/10/12 02:18:54;;;;;;;16.17;5.72;;;15.10;99.90;;;;;;5072663;28;20025;-68
2023/10/12 02:21:21;;;;;;;14.35;6.20;;;15.10;99.90;;;;;;5084649;28;20028;-68
2023/10/12 02:26:37;;;;;;;14.15;5.72;;;15.10;99.90;;;;;;5096571;28;20099;-69
2023/10/12 02:34:25;;;;;;;10.63;5.05;;;15.10;99.90;;;;;;5096377;28;19908;-69
2023/10/12 02:39:40;;;;;;;14.85;6.03;;;15.00;99.90;;;;;;5096730;28;20452;-69
2023/10/12 02:44:50;;;;;;;13.70;5.55;;;15.00;99.90;;;;;;5096600;28;20107;-69
2023/10/12 02:47:23;;;;;;;12.35;5.55;;;14.90;99.90;;;;;;5096111;28;20035;-68
2023/10/12 02:52:34;;;;;;;10.20;5.25;;;14.90;99.90;;;;;;5096450;28;20103;-68
2023/10/12 02:55:18;;;;;;;11.40;5.20;;;14.90;99.90;;;;;;5095983;28;20028;-68
2023/10/12 02:57:53;;;;;;;13.15;5.65;;;14.90;99.90;;;;;;5096139;28;20071;-69
2023/10/12 03:00:22;;;;;;;11.75;6.30;;;14.90;99.90;;;;;;5095907;28;20042;-68
2023/10/12 03:02:52;;;;;;;14.93;5.85;;;14.90;99.90;;;;;;5095992;28;20103;-69
2023/10/12 03:05:18;;;;;;;9.55;5.75;;;14.80;99.90;;;;;;5095537;28;20032;-70
2023/10/12 03:07:44;;;;;;;15.30;5.45;;;14.90;99.90;;;;;;5096121;28;20529;-68
2023/10/12 03:10:26;;;;;;;13.60;6.40;;;14.80;99.90;;;;;;5095466;28;20435;-70
2023/10/12 03:12:55;;;;;;;11.13;5.68;;;14.80;99.90;;;;;;5095939;28;20093;-69
2023/10/12 03:15:40;;;;;;;11.82;5.80;;;14.80;99.90;;;;;;5095639;28;20533;-68
2023/10/12 03:18:11;;;;;;;15.32;5.28;;;14.80;99.90;;;;;;5095620;28;20475;-69
2023/10/12 03:20:37;;;;;;;10.30;5.57;;;14.80;99.90;;;;;;5095979;28;20024;-69
2023/10/12 03:23:13;;;;;;;12.52;5.38;;;14.80;99.90;;;;;;5095204;28;20038;-67
2023/10/12 03:25:51;;;;;;;13.55;6.03;;;14.80;99.90;;;;;;5095936;28;20024;-68
2023/10/12 03:28:29;;;;;;;12.43;5.82;;;14.80;99.90;;;;;;5095135;28;20027;-70
2023/10/12 03:31:11;;;;;;;12.77;5.55;;;14.70;99.90;;;;;;5095747;28;20028;-69
2023/10/12 03:33:39;;;;;;;13.68;5.90;;;14.70;99.90;;;;;;5092106;28;20024;-69
2023/10/12 03:36:22;;;;;;;17.00;6.45;;;14.70;99.90;;;;;;5094145;28;20126;-69
2023/10/12 03:39:13;;;;;;;15.52;6.53;;;14.70;99.90;;;;;;5095676;28;20099;-70
2023/10/12 03:44:18;;;;;;;14.57;7.38;;;14.70;99.90;;;;;;5095166;28;20465;-70
2023/10/12 03:46:46;;;;;;;18.75;7.88;;;14.80;99.90;;;;;;5095487;28;20024;-69
2023/10/12 03:49:31;;;;;;;16.25;8.25;;;14.80;99.90;;;;;;5094878;28;20032;-68
2023/10/12 03:51:59;;;;;;;16.13;7.63;;;14.80;99.90;;;;;;5095810;28;20467;-68
2023/10/12 03:54:28;;;;;;;12.63;7.68;;;14.80;99.90;;;;;;5095807;28;20040;-68
2023/10/12 03:57:03;;;;;;;14.40;7.05;;;14.80;99.90;;;;;;5093223;28;20035;-69
2023/10/12 03:59:44;;;;;;;12.55;6.00;;;14.70;99.90;;;;;;5095565;28;20036;-69
2023/10/12 04:02:16;;;;;;;16.33;6.77;;;14.70;99.90;;;;;;5095181;28;20056;-68
2023/10/12 04:05:15;;;;;;;16.45;6.82;;;14.60;99.90;;;;;;5095133;28;20024;-68
2023/10/12 04:13:09;;;;;;;10.50;6.03;;;14.60;99.90;;;;;;5094793;28;20085;-71
2023/10/12 04:18:28;;;;;;;17.45;7.75;;;14.60;99.90;;;;;;5094438;28;20046;-69
2023/10/12 04:20:57;;;;;;;17.90;7.72;;;14.60;99.90;;;;;;5094827;28;20042;-69
2023/10/12 04:28:57;;;;;;;14.65;7.40;;;14.60;99.90;;;;;;5074418;28;20028;-69
2023/10/12 04:31:49;;;;;;;17.70;10.07;;;14.60;99.90;;;;;;5073679;28;20028;-70
2023/10/12 04:34:27;;;;;;;17.23;7.28;;;14.70;99.90;;;;;;5073731;28;20169;-68
2023/10/12 04:37:10;;;;;;;16.27;7.85;;;14.70;99.90;;;;;;5074239;28;20033;-69
2023/10/12 04:39:37;;;;;;;14.05;7.70;;;14.70;99.90;;;;;;5074405;28;20036;-68
2023/10/12 04:42:20;;;;;;;18.88;7.63;;;14.60;99.90;;;;;;5074127;28;20442;-69
2023/10/12 04:45:02;;;;;;;10.63;7.45;;;14.60;99.90;;;;;;5074304;28;20083;-69
2023/10/12 04:47:30;;;;;;;17.35;7.53;;;14.70;99.90;;;;;;5073372;28;20037;-69
2023/10/12 04:49:57;;;;;;;11.30;7.18;;;14.70;99.90;;;;;;5072689;28;20063;-69
2023/10/12 04:52:32;;;;;;;13.80;6.65;;;14.60;99.90;;;;;;5073322;28;20024;-69
2023/10/12 04:55:06;;;;;;;13.85;6.85;;;14.60;99.90;;;;;;5073560;28;20469;-70
2023/10/12 04:57:34;;;;;;;14.95;7.63;;;14.60;99.90;;;;;;5073333;28;20051;-69
2023/10/12 05:05:15;;;;;;;12.18;7.00;;;14.50;99.90;;;;;;5073334;28;20488;-69
2023/10/12 05:07:53;;;;;;;10.32;6.85;;;14.40;99.90;;;;;;5073756;28;20029;-69
2023/10/12 05:10:28;;;;;;;14.75;7.65;;;14.40;99.90;;;;;;5073231;28;20043;-69
2023/10/12 05:13:05;;;;;;;14.05;7.18;;;14.40;99.90;;;;;;5073490;28;20032;-69
2023/10/12 05:15:42;;;;;;;15.52;8.07;;;14.30;99.90;;;;;;5073051;28;20020;-68
2023/10/12 05:18:08;;;;;;;18.25;7.60;;;14.30;99.90;;;;;;5072174;28;20031;-68
2023/10/12 05:20:35;;;;;;;17.45;6.50;;;14.30;99.90;;;;;;5075542;28;20712;-69
2023/10/12 05:23:03;;;;;;;14.85;5.32;;;14.30;99.90;;;;;;5073305;28;20032;-69
2023/10/12 05:28:15;;;;;;;16.63;5.32;;;14.20;99.90;;;;;;5072806;28;20059;-68
2023/10/12 05:30:55;;;;;;;13.35;4.68;;;14.10;99.90;;;;;;5073034;28;20029;-68
2023/10/12 05:36:08;;;;;;;11.52;5.85;;;14.10;99.90;;;;;;5073333;28;20043;-69
2023/10/12 05:38:35;;;;;;;18.33;5.47;;;14.20;99.90;;;;;;5075062;28;20048;-69
2023/10/12 05:41:08;;;;;;;20.40;6.53;;;14.20;99.90;;;;;;5073877;28;20024;-69
2023/10/12 05:43:43;;;;;;;16.33;7.40;;;14.30;99.90;;;;;;5081254;28;20081;-68
2023/10/12 05:46:15;;;;;;;18.00;7.32;;;14.30;99.90;;;;;;5085434;28;20039;-68
2023/10/12 05:48:46;;;;;;;15.73;7.50;;;14.40;99.90;;;;;;5085790;28;20491;-69
2023/10/12 05:51:21;;;;;;;18.35;7.80;;;14.40;99.90;;;;;;5089165;28;20132;-69
2023/10/12 05:54:03;;;;;;;20.70;7.97;;;14.40;99.90;;;;;;5091594;28;20468;-69
2023/10/12 05:56:34;;;;;;;14.27;7.60;;;14.50;99.90;;;;;;5092734;28;20046;-69
2023/10/12 05:59:00;;;;;;;16.42;7.30;;;14.50;99.90;;;;;;5092680;28;20176;-70
2023/10/12 06:01:32;;;;;;;14.85;8.63;;;14.50;99.90;;;;;;5091290;28;20054;-69
2023/10/12 06:03:58;;;;;;;23.02;8.05;;;14.50;99.90;;;;;;5091859;28;20094;-69
2023/10/12 06:06:24;;;;;;;15.38;7.82;;;14.60;99.90;;;;;;5091122;28;20024;-69
2023/10/12 06:08:52;;;;;;;14.43;8.23;;;14.60;99.90;;;;;;5092588;28;20020;-69
2023/10/12 06:11:19;;;;;;;17.95;7.95;;;14.60;99.90;;;;;;5092328;28;20080;-69
2023/10/12 06:13:51;;;;;;;20.20;8.50;;;14.70;99.90;;;;;;5091171;28;20032;-68
2023/10/12 06:16:20;;;;;;;13.95;7.50;;;14.70;99.90;;;;;;5092165;28;20051;-70
2023/10/12 06:18:49;;;;;;;16.08;8.55;;;14.70;99.90;;;;;;5092959;28;20035;-69
2023/10/12 06:21:19;;;;;;;14.10;7.30;;;14.70;99.90;;;;;;5092237;28;20043;-71
2023/10/12 06:23:50;;;;;;;18.70;7.70;;;14.70;99.90;;;;;;5091514;28;20177;-69
2023/10/12 06:26:31;;;;;;;;;;;14.80;99.90;;;;;;5091337;28;20024;-68
2023/10/12 06:29:00;;;;;;;19.07;7.90;;;14.80;99.90;;;;;;5092742;28;19904;-69
2023/10/12 06:31:29;;;;;;;15.38;7.28;;;14.90;99.90;;;;;;5088921;28;20128;-68
2023/10/12 06:34:01;;;;;;;21.42;8.50;;;14.90;99.90;;;;;;5072288;28;20036;-69
2023/10/12 06:36:39;;;;;;;18.15;8.73;;;15.00;99.90;;;;;;5072046;28;20067;-68
2023/10/12 06:46:54;;;;;;;18.40;8.13;;;15.20;99.90;;;;;;5072361;28;20029;-69
2023/10/12 06:49:44;;;;;;;19.75;8.90;;;15.20;99.90;;;;;;5071866;28;20043;-70
2023/10/12 06:52:13;;;;;;;17.13;8.23;;;15.30;99.90;;;;;;5072366;28;20039;-69
2023/10/12 06:54:39;;;;;;;16.83;8.85;;;15.30;99.90;;;;;;5070432;28;20037;-70
2023/10/12 06:59:52;;;;;;;27.33;10.70;;;15.50;99.90;;;;;;5072225;28;20020;-69
2023/10/12 07:02:24;;;;;;;28.35;10.38;;;15.50;99.90;;;;;;5071761;28;20070;-70
2023/10/12 07:04:53;;;;;;;27.08;10.02;;;15.60;99.90;;;;;;5070993;28;20422;-68
2023/10/12 07:07:58;;;;;;;23.08;10.60;;;15.60;99.90;;;;;;5071604;28;20110;-70
2023/10/12 07:10:24;;;;;;;20.70;9.20;;;15.70;99.90;;;;;;5068004;28;20488;-70
2023/10/12 07:12:50;;;;;;;20.90;9.75;;;15.80;99.90;;;;;;5075822;28;20032;-69
2023/10/12 07:15:22;;;;;;;15.48;8.02;;;15.90;99.90;;;;;;5075677;28;20056;-68
2023/10/12 07:17:51;;;;;;;24.38;8.60;;;16.00;99.90;;;;;;5075519;28;20054;-69
2023/10/12 07:22:57;;;;;;;14.65;7.97;;;16.50;99.90;;;;;;5075487;28;20029;-69
2023/10/12 07:25:26;;;;;;;16.27;8.35;;;16.80;99.90;;;;;;5074958;28;20075;-68
2023/10/12 07:27:59;;;;;;;21.48;8.68;;;17.10;99.90;;;;;;5075423;28;20036;-69
2023/10/12 07:30:33;;;;;;;18.02;8.35;;;17.30;99.90;;;;;;5075008;28;20035;-69
2023/10/12 07:33:04;;;;;;;17.77;6.55;;;17.50;99.90;;;;;;5075246;28;20110;-69
2023/10/12 07:35:36;;;;;;;15.45;6.63;;;17.80;99.90;;;;;;5094116;28;20393;-69
2023/10/12 07:38:13;;;;;;;12.90;5.75;;;18.20;99.90;;;;;;5095239;28;20484;-68
2023/10/12 07:43:20;;;;;;;14.40;5.75;;;18.70;99.90;;;;;;5095142;28;20032;-71
2023/10/12 07:45:49;;;;;;;16.08;5.65;;;19.00;99.90;;;;;;5095199;28;20031;-70
2023/10/12 07:49:22;;;;;;;12.45;5.70;;;19.30;99.90;;;;;;5094961;28;20059;-69
2023/10/12 07:51:59;;;;;;;12.65;5.40;;;19.60;99.30;;;;;;5086949;28;20032;-69
2023/10/12 07:54:25;;;;;;;15.32;5.20;;;19.80;96.70;;;;;;5091660;28;20123;-69
2023/10/12 07:56:52;;;;;;;16.90;5.20;;;20.00;95.80;;;;;;5094792;28;20036;-68
2023/10/12 07:59:22;;;;;;;14.00;5.35;;;20.20;94.10;;;;;;5094586;28;20047;-68
2023/10/12 08:01:50;;;;;;;14.60;5.18;;;20.40;92.90;;;;;;5095014;28;20024;-68
2023/10/12 08:04:31;;;;;;;11.85;5.00;;;20.50;91.70;;;;;;5094619;28;20510;-69
2023/10/12 08:06:57;;;;;;;10.30;5.20;;;20.70;91.00;;;;;;5095139;28;20447;-69
2023/10/12 08:11:54;;;;;;;10.93;5.70;;;20.90;90.00;;;;;;5094700;28;20119;-69
2023/10/12 08:14:39;;;;;;;14.43;5.40;;;21.10;90.10;;;;;;5094557;28;20422;-69
2023/10/12 08:19:56;;;;;;;12.75;4.43;;;21.20;87.00;;;;;;5094811;28;20475;-69
2023/10/12 08:22:29;;;;;;;11.15;4.78;;;21.30;86.30;;;;;;5094066;28;20020;-69
2023/10/12 08:24:56;;;;;;;12.73;5.25;;;21.40;84.60;;;;;;5080583;28;20440;-69
2023/10/12 08:27:23;;;;;;;11.63;4.93;;;21.50;84.40;;;;;;5074182;28;20066;-69
2023/10/12 08:32:27;;;;;;;11.68;4.80;;;21.70;83.80;;;;;;5074136;28;20129;-69
2023/10/12 08:37:35;;;;;;;14.63;4.82;;;22.00;81.30;;;;;;5072599;28;20043;-70
2023/10/12 08:40:18;;;;;;;18.48;5.57;;;22.00;80.30;;;;;;5074149;28;20025;-69
2023/10/12 08:42:58;;;;;;;11.20;4.45;;;22.10;80.70;;;;;;5073524;28;20052;-69
2023/10/12 08:45:26;;;;;;;14.18;5.10;;;22.10;80.60;;;;;;5073988;28;20027;-68
2023/10/12 08:47:54;;;;;;;8.63;4.72;;;22.20;79.90;;;;;;5073712;28;20043;-68
2023/10/12 08:52:51;;;;;;;14.00;5.35;;;22.40;81.50;;;;;;5073323;28;20031;-68
2023/10/12 08:55:24;;;;;;;12.27;4.97;;;22.50;80.30;;;;;;5073857;28;20472;-69
2023/10/12 08:58:15;;;;;;;12.25;4.85;;;22.60;80.50;;;;;;5073296;28;20044;-67
2023/10/12 09:00:55;;;;;;;;;;;22.70;79.60;;;;;;5074090;28;20035;-69
2023/10/12 09:03:29;;;;;;;9.57;5.40;;;22.80;80.10;;;;;;5073918;28;19904;-69
2023/10/12 09:05:55;;;;;;;10.93;5.93;;;22.70;80.70;;;;;;5073734;28;20032;-69
2023/10/12 09:11:13;;;;;;;9.30;5.28;;;22.80;80.30;;;;;;5073407;28;20033;-68
2023/10/12 09:13:45;;;;;;;;;;;22.80;80.00;;;;;;5073465;28;20081;-69
2023/10/12 09:16:11;;;;;;;17.55;5.90;;;22.90;80.90;;;;;;5073374;28;20046;-68
2023/10/12 09:18:44;;;;;;;8.15;5.63;;;22.90;80.30;;;;;;5072993;28;20025;-68
2023/10/12 09:21:23;;;;;;;12.65;5.32;;;23.00;80.00;;;;;;5073229;28;20033;-68
2023/10/12 09:24:05;;;;;;;10.43;5.40;;;23.10;80.10;;;;;;5072673;28;20111;-67
2023/10/12 09:26:33;;;;;;;15.93;5.93;;;23.10;78.80;;;;;;5072885;28;20040;-70
2023/10/12 09:36:55;;;;;;;13.55;5.97;;;23.30;78.90;;;;;;5056770;28;20070;-68
2023/10/12 09:39:26;;;;;;;9.90;5.93;;;23.30;79.80;;;;;;5072937;28;20027;-67
2023/10/12 09:42:14;;;;;;;14.07;6.60;;;23.40;79.60;;;;;;5072413;28;20466;-68
2023/10/12 09:44:40;;;;;;;8.05;5.50;;;23.40;80.40;;;;;;5072846;28;20036;-69
2023/10/12 09:47:15;;;;;;;11.77;6.15;;;23.50;81.40;;;;;;5072739;28;20369;-69
2023/10/12 09:49:53;;;;;;;12.48;6.40;;;23.50;81.30;;;;;;5072308;28;20059;-69
2023/10/12 09:52:22;;;;;;;7.47;5.47;;;23.60;82.00;;;;;;5072837;28;20039;-69
2023/10/12 09:55:07;;;;;;;9.63;5.40;;;23.70;80.70;;;;;;5072159;28;20070;-69
2023/10/12 09:57:36;;;;;;;14.63;5.82;;;23.90;78.90;;;;;;5072112;28;20052;-69
2023/10/12 10:00:18;;;;;;;9.45;5.65;;;23.90;76.60;;;;;;5072492;28;20078;-69
2023/10/12 10:02:49;;;;;;;9.25;5.85;;;24.00;77.10;;;;;;5072246;28;20025;-68
2023/10/12 10:07:55;;;;;;;10.30;5.55;;;24.20;76.80;;;;;;5072101;28;20033;-69
2023/10/12 10:10:32;;;;;;;7.43;5.30;;;24.30;76.50;;;;;;5072635;28;20024;-69
2023/10/12 10:13:12;;;;;;;10.38;6.10;;;24.40;76.10;;;;;;5072335;28;20025;-69
2023/10/12 10:15:56;;;;;;;16.57;6.07;;;24.50;75.80;;;;;;5071961;28;20033;-68
2023/10/12 10:18:25;;;;;;;12.73;5.95;;;24.70;75.30;;;;;;5072188;28;20058;-68
2023/10/12 10:20:58;;;;;;;11.00;5.88;;;24.70;74.60;;;;;;5084240;28;20392;-68
2023/10/12 10:23:24;;;;;;;9.52;5.45;;;24.80;75.30;;;;;;5092564;28;20369;-69
2023/10/12 10:26:06;;;;;;;10.48;5.43;;;24.90;75.30;;;;;;5092024;28;20038;-68
2023/10/12 10:28:32;;;;;;;8.70;5.25;;;24.90;74.90;;;;;;5092406;28;20025;-69
2023/10/12 10:31:01;;;;;;;13.82;5.47;;;24.90;73.80;;;;;;5092662;28;20020;-69
2023/10/12 10:33:28;;;;;;;11.18;5.00;;;25.00;75.00;;;;;;5092091;28;20492;-69
2023/10/12 10:36:10;;;;;;;9.82;5.43;;;25.10;74.20;;;;;;5092064;28;20016;-69
2023/10/12 10:38:39;;;;;;;8.77;6.38;;;25.30;74.10;;;;;;5092220;28;20028;-69
2023/10/12 10:41:07;;;;;;;15.10;5.28;;;25.40;74.10;;;;;;5092484;28;20034;-69
2023/10/12 10:43:40;;;;;;;7.55;4.82;;;25.60;73.20;;;;;;5090925;28;20062;-69
2023/10/12 10:46:09;;;;;;;6.97;5.00;;;25.70;72.50;;;;;;5095694;28;20526;-70
2023/10/12 10:48:37;;;;;;;14.45;5.18;;;25.90;72.00;;;;;;5095537;28;20073;-69
2023/10/12 10:51:07;;;;;;;9.50;5.03;;;25.90;71.20;;;;;;5096245;28;20028;-69
2023/10/12 10:53:36;;;;;;;9.63;4.65;;;26.00;70.40;;;;;;5096346;28;20032;-69
2023/10/12 10:56:14;;;;;;;9.93;5.07;;;26.20;70.80;;;;;;5096090;28;20042;-69
2023/10/12 10:58:41;;;;;;;14.82;5.00;;;26.30;69.70;;;;;;5096141;28;20131;-69
2023/10/12 11:01:12;;;;;;;19.88;5.05;;;26.40;68.30;;;;;;5095890;28;20474;-68
2023/10/12 11:03:39;;;;;;;9.43;5.18;;;26.60;68.80;;;;;;5095962;28;20024;-69
2023/10/12 11:06:21;;;;;;;9.70;4.90;;;26.60;67.30;;;;;;5095522;28;20097;-68
2023/10/12 11:09:06;;;;;;;9.70;5.10;;;26.80;67.90;;;;;;5095453;28;20038;-69
2023/10/12 11:11:38;;;;;;;9.38;3.97;;;26.80;65.30;;;;;;5096027;28;20032;-69
2023/10/12 11:14:10;;;;;;;12.38;4.38;;;26.90;65.90;;;;;;5096100;28;20108;-69
2023/10/12 11:16:37;;;;;;;9.13;4.03;;;27.00;64.30;;;;;;5096225;28;20077;-69
2023/10/12 11:19:04;;;;;;;6.70;3.53;;;27.00;65.30;;;;;;5096164;28;20063;-69
2023/10/12 11:21:30;;;;;;;10.70;4.22;;;27.10;65.40;;;;;;5095951;28;20106;-69
2023/10/12 11:24:03;;;;;;;8.57;3.88;;;27.20;63.30;;;;;;5095804;28;20038;-68
2023/10/12 11:26:39;;;;;;;13.25;4.38;;;27.20;60.90;;;;;;5095567;28;20099;-68
2023/10/12 11:29:10;;;;;;;8.75;4.40;;;27.30;61.70;;;;;;5095567;28;20036;-69
2023/10/12 11:31:37;;;;;;;7.72;4.32;;;27.40;63.00;;;;;;5095421;28;20469;-69
2023/10/12 11:34:11;;;;;;;11.45;5.25;;;27.40;63.10;;;;;;5095268;28;20430;-69
2023/10/12 11:36:38;;;;;;;7.93;3.88;;;27.50;63.80;;;;;;5095025;28;20077;-69
2023/10/12 11:39:16;;;;;;;10.35;4.80;;;27.60;63.60;;;;;;5095225;28;20039;-69
2023/10/12 11:42:01;;;;;;;9.82;4.07;;;27.70;61.70;;;;;;5091555;28;20023;-68
2023/10/12 11:44:33;;;;;;;7.75;3.83;;;27.60;57.70;;;;;;5095456;28;20031;-68
2023/10/12 11:47:00;;;;;;;8.93;3.72;;;27.60;58.40;;;;;;5094770;28;20054;-68
2023/10/12 11:49:26;;;;;;;8.20;3.47;;;27.60;55.30;;;;;;5092558;28;20032;-68
2023/10/12 11:51:57;;;;;;;13.57;3.80;;;27.60;53.30;;;;;;5074597;28;20029;-68
2023/10/12 11:54:32;;;;;;;;;;;27.60;54.60;;;;;;5075347;28;20477;-69
2023/10/12 11:56:58;;;;;;;6.80;3.22;;;27.60;56.60;;;;;;5073253;28;20246;-69
2023/10/12 11:59:31;;;;;;;6.28;2.90;;;27.50;51.40;;;;;;5074641;28;20036;-69
2023/10/12 12:02:00;;;;;;;12.55;3.47;;;27.50;48.60;;;;;;5074254;28;20028;-70
2023/10/12 12:04:39;;;;;;;8.30;4.40;;;27.40;50.50;;;;;;5074664;28;20450;-68
2023/10/12 12:07:13;;;;;;;7.43;3.88;;;27.40;51.20;;;;;;5074556;28;20050;-68
2023/10/12 12:09:48;;;;;;;7.78;3.20;;;27.40;51.40;;;;;;5074618;28;20024;-69
2023/10/12 12:12:16;;;;;;;5.38;3.47;;;27.30;50.00;;;;;;5079130;28;20054;-68
2023/10/12 12:14:46;;;;;;;11.43;3.08;;;27.20;47.10;;;;;;5094073;28;20039;-69
2023/10/12 12:17:15;;;;;;;5.30;2.93;;;27.10;45.30;;;;;;5094650;28;20035;-69
2023/10/12 12:19:41;;;;;;;8.13;3.22;;;27.00;45.80;;;;;;5094034;28;20252;-70
2023/10/12 12:22:10;;;;;;;8.77;3.22;;;26.90;46.00;;;;;;5094231;28;20419;-69
2023/10/12 12:24:37;;;;;;;8.65;3.00;;;26.90;45.80;;;;;;5094475;28;20492;-69
2023/10/12 12:27:05;;;;;;;7.07;2.60;;;26.90;45.80;;;;;;5093798;28;20154;-69
2023/10/12 12:29:32;;;;;;;9.95;3.10;;;26.80;46.10;;;;;;5094317;28;20035;-69
2023/10/12 12:31:57;;;;;;;6.80;3.00;;;26.70;46.10;;;;;;5093486;28;20563;-69
2023/10/12 12:34:38;;;;;;;8.20;3.00;;;26.60;47.00;;;;;;5094285;28;20107;-69
2023/10/12 12:37:08;;;;;;;7.78;3.38;;;26.50;46.50;;;;;;5093632;28;20028;-69
2023/10/12 12:39:34;;;;;;;6.78;2.40;;;26.40;47.10;;;;;;5094236;28;20035;-69
2023/10/12 12:42:02;;;;;;;7.85;2.80;;;26.30;47.00;;;;;;5093645;28;20046;-69
2023/10/12 12:44:27;;;;;;;9.88;2.85;;;26.20;47.30;;;;;;5094042;28;20028;-68
2023/10/12 12:46:54;;;;;;;8.43;3.30;;;26.20;47.40;;;;;;5093725;28;20095;-69
2023/10/12 12:49:21;;;;;;;8.95;3.00;;;26.10;48.80;;;;;;5094127;28;20326;-69
2023/10/12 12:51:46;;;;;;;11.70;3.28;;;26.10;47.30;;;;;;5093798;28;20017;-68
2023/10/12 12:54:12;;;;;;;14.88;3.95;;;26.10;47.40;;;;;;5093948;28;20035;-69
2023/10/12 12:56:38;;;;;;;7.75;3.22;;;26.00;47.60;;;;;;5094505;28;20110;-69
2023/10/12 12:59:04;;;;;;;10.35;3.15;;;26.00;47.80;;;;;;5093790;28;20449;-69
2023/10/12 13:01:31;;;;;;;11.00;2.70;;;26.00;47.40;;;;;;5093762;28;20051;-69
2023/10/12 13:03:57;;;;;;;10.63;3.42;;;25.90;47.10;;;;;;5093510;28;20040;-69
2023/10/12 13:06:25;;;;;;;8.95;3.10;;;25.90;47.10;;;;;;5093454;28;20016;-69
2023/10/12 13:08:51;;;;;;;10.40;3.30;;;25.90;46.30;;;;;;5093610;28;20127;-68
2023/10/12 13:11:21;;;;;;;9.10;3.15;;;25.80;46.30;;;;;;5093966;28;20472;-69
2023/10/12 13:13:47;;;;;;;9.00;3.15;;;25.80;46.40;;;;;;5092933;28;20085;-69
2023/10/12 13:16:14;;;;;;;11.60;3.72;;;25.80;46.10;;;;;;5093621;28;20388;-69
2023/10/12 13:18:49;;;;;;;9.02;3.25;;;25.80;46.50;;;;;;5093772;28;20027;-69
2023/10/12 13:21:15;;;;;;;8.50;3.53;;;25.70;46.70;;;;;;5093846;28;20401;-69
2023/10/12 13:23:42;;;;;;;6.15;3.13;;;25.70;46.70;;;;;;5093413;28;20028;-69
2023/10/12 13:26:10;;;;;;;8.65;3.22;;;25.70;46.30;;;;;;5092726;28;20461;-69
2023/10/12 13:28:38;;;;;;;7.03;3.08;;;25.70;46.90;;;;;;5091972;28;20436;-68
2023/10/12 13:31:05;;;;;;;6.55;3.38;;;25.60;46.20;;;;;;5092804;28;20035;-68
2023/10/12 13:33:31;;;;;;;12.55;3.47;;;25.60;46.10;;;;;;5093244;28;20193;-69
2023/10/12 13:35:58;;;;;;;9.23;3.08;;;25.50;46.50;;;;;;5092794;28;20032;-68
2023/10/12 13:38:24;;;;;;;7.55;3.28;;;25.40;47.30;;;;;;5089795;28;20016;-68
2023/10/12 13:40:51;;;;;;;13.05;3.67;;;25.40;47.70;;;;;;5092805;28;20431;-69
2023/10/12 13:43:21;;;;;;;7.20;3.22;;;25.30;48.10;;;;;;5093209;28;20028;-69
2023/10/12 13:45:51;;;;;;;;;;;25.30;47.70;;;;;;5093186;28;20028;-70
2023/10/12 13:48:24;;;;;;;11.27;3.20;;;25.30;47.90;;;;;;5093026;28;19911;-67
2023/10/12 13:51:01;;;;;;;8.38;2.97;;;25.20;47.80;;;;;;5092777;28;20118;-67
2023/10/12 13:53:27;;;;;;;7.88;3.50;;;25.20;48.10;;;;;;5091932;28;20028;-69
2023/10/12 13:55:53;;;;;;;6.10;2.97;;;25.10;48.10;;;;;;5092207;28;20066;-68
2023/10/12 13:58:24;;;;;;;9.32;3.08;;;25.10;48.40;;;;;;5092410;28;20086;-68
2023/10/12 14:00:56;;;;;;;11.20;3.38;;;25.00;48.70;;;;;;5092596;28;20103;-69
2023/10/12 14:03:28;;;;;;;5.97;3.20;;;25.00;48.70;;;;;;5092694;28;20093;-69
2023/10/12 14:05:58;;;;;;;11.23;3.38;;;24.90;48.40;;;;;;5092425;28;20017;-69
2023/10/12 14:08:24;;;;;;;10.80;3.33;;;24.90;48.70;;;;;;5092771;28;20077;-69
2023/10/12 14:10:51;;;;;;;6.47;3.00;;;24.90;48.50;;;;;;5091971;28;20468;-69
2023/10/12 14:13:17;;;;;;;8.68;4.00;;;24.80;48.60;;;;;;5092808;28;20465;-69
2023/10/12 14:15:43;;;;;;;8.43;3.00;;;24.80;49.10;;;;;;5092410;28;20032;-69
2023/10/12 14:18:11;;;;;;;12.93;3.67;;;24.70;49.00;;;;;;5086789;28;20227;-69
2023/10/12 14:20:39;;;;;;;9.80;3.65;;;24.70;49.40;;;;;;5077422;28;20099;-69
2023/10/12 14:23:07;;;;;;;6.97;3.30;;;24.60;49.30;;;;;;5078993;28;20473;-69
2023/10/12 14:25:38;;;;;;;13.38;3.67;;;24.60;49.00;;;;;;5079469;28;20043;-68
2023/10/12 14:28:05;;;;;;;13.68;3.67;;;24.60;48.80;;;;;;5079460;28;20017;-68
2023/10/12 14:30:36;;;;;;;11.30;3.35;;;24.50;49.20;;;;;;5079768;28;20108;-69
2023/10/12 14:33:03;;;;;;;7.88;3.10;;;24.50;49.40;;;;;;5079150;28;20469;-69
2023/10/12 14:35:30;;;;;;;11.95;3.40;;;24.50;49.20;;;;;;5079291;28;20040;-69
2023/10/12 14:37:56;;;;;;;8.80;3.53;;;24.50;49.70;;;;;;5078939;28;20055;-69